createdAt,value
2022-10-23T00:00:42.886Z,84.03
2022-10-23T00:02:05.690Z,84.03
2022-10-23T00:03:08.578Z,84.00
2022-10-23T00:04:16.081Z,83.99
2022-10-23T00:05:18.965Z,83.43
2022-10-23T00:06:21.911Z,83.46
2022-10-23T00:07:24.793Z,83.10
2022-10-23T00:08:27.673Z,82.95
2022-10-23T00:09:30.467Z,83.00
2022-10-23T00:10:33.345Z,83.15
2022-10-23T00:11:36.622Z,83.28
2022-10-23T00:12:39.675Z,83.29
2022-10-23T00:13:42.780Z,83.46
2022-10-23T00:14:45.574Z,82.97
2022-10-23T00:15:48.441Z,83.07
2022-10-23T00:16:51.910Z,83.57
2022-10-23T00:17:54.860Z,83.61
2022-10-23T00:18:58.899Z,83.58
2022-10-23T00:20:01.787Z,83.63
2022-10-23T00:21:05.784Z,83.70
2022-10-23T00:22:08.700Z,83.69
2022-10-23T00:23:11.536Z,83.76
2022-10-23T00:24:14.584Z,83.56
2022-10-23T00:25:18.603Z,83.63
2022-10-23T00:26:21.422Z,83.83
2022-10-23T00:27:24.518Z,83.79
2022-10-23T00:28:27.373Z,83.73
2022-10-23T00:29:30.380Z,83.81
2022-10-23T00:30:33.233Z,83.93
2022-10-23T00:31:36.658Z,84.04
2022-10-23T00:32:39.495Z,84.06
2022-10-23T00:33:42.715Z,83.78
2022-10-23T00:34:45.935Z,83.63
2022-10-23T00:35:48.738Z,83.68
2022-10-23T00:36:51.516Z,83.73
2022-10-23T00:37:54.362Z,83.78
2022-10-23T00:38:57.217Z,83.70
2022-10-23T00:40:00.073Z,83.51
2022-10-23T00:41:03.032Z,83.45
2022-10-23T00:42:06.037Z,83.39
2022-10-23T00:43:16.676Z,83.36
2022-10-23T00:44:22.631Z,83.46
2022-10-23T00:45:27.154Z,83.04
2022-10-23T00:46:30.849Z,83.27
2022-10-23T00:47:33.666Z,83.28
2022-10-23T00:48:36.772Z,83.23
2022-10-23T00:49:42.656Z,83.46
2022-10-23T00:50:46.896Z,83.35
2022-10-23T00:51:56.952Z,83.21
2022-10-23T00:53:02.364Z,82.26
2022-10-23T00:55:28.439Z,81.99
2022-10-23T00:56:33.479Z,82.28
2022-10-23T00:57:36.257Z,82.57
2022-10-23T00:58:39.055Z,82.67
2022-10-23T00:59:42.021Z,82.83
2022-10-23T01:00:49.236Z,82.71
2022-10-23T01:01:52.398Z,82.58
2022-10-23T01:02:56.372Z,82.66
2022-10-23T01:03:59.816Z,82.60
2022-10-23T01:05:03.259Z,82.66
2022-10-23T01:06:29.213Z,82.53
2022-10-23T01:07:42.893Z,82.54
2022-10-23T01:08:48.942Z,82.66
2022-10-23T01:10:03.753Z,82.51
2022-10-23T01:11:14.983Z,82.42
2022-10-23T01:12:32.980Z,82.21
2022-10-23T01:13:38.926Z,82.13
2022-10-23T01:14:54.860Z,82.03
2022-10-23T01:16:04.722Z,82.02
2022-10-23T01:17:16.927Z,82.10
2022-10-23T01:18:30.204Z,82.22
2022-10-23T01:19:48.470Z,82.26
2022-10-23T01:20:55.633Z,82.38
2022-10-23T01:22:36.949Z,82.54
2022-10-23T01:23:39.889Z,82.61
2022-10-23T01:25:11.682Z,82.69
2022-10-23T01:26:33.841Z,82.71
2022-10-23T01:27:39.754Z,82.50
2022-10-23T01:28:42.509Z,82.25
2022-10-23T01:30:06.477Z,82.28
2022-10-23T01:31:24.572Z,82.49
2022-10-23T01:32:36.502Z,82.74
2022-10-23T01:33:42.087Z,82.94
2022-10-23T01:34:50.715Z,82.77
2022-10-23T01:35:58.041Z,82.99
2022-10-23T01:37:02.508Z,83.21
2022-10-23T01:38:06.081Z,83.21
2022-10-23T01:39:14.734Z,83.23
2022-10-23T01:40:25.080Z,82.98
2022-10-23T01:41:46.770Z,83.00
2022-10-23T01:42:56.782Z,83.10
2022-10-23T01:44:15.972Z,83.03
2022-10-23T01:45:26.581Z,83.14
2022-10-23T01:46:30.295Z,83.14
2022-10-23T01:47:35.749Z,83.09
2022-10-23T01:48:44.369Z,83.02
2022-10-23T01:49:48.584Z,83.13
2022-10-23T01:50:53.822Z,83.01
2022-10-23T01:51:59.432Z,82.96
2022-10-23T01:53:03.552Z,83.02
2022-10-23T01:54:09.293Z,82.82
2022-10-23T01:55:13.498Z,82.94
2022-10-23T01:56:19.551Z,82.97
2022-10-23T01:57:25.479Z,83.10
2022-10-23T01:58:29.801Z,83.28
2022-10-23T01:59:36.850Z,83.34
2022-10-23T02:00:42.721Z,82.89
2022-10-23T02:01:47.830Z,83.29
2022-10-23T02:02:51.631Z,83.29
2022-10-23T02:03:56.123Z,83.46
2022-10-23T02:05:03.343Z,83.57
2022-10-23T02:06:06.490Z,83.60
2022-10-23T02:07:09.401Z,83.51
2022-10-23T02:08:12.758Z,83.46
2022-10-23T02:09:16.235Z,83.51
2022-10-23T02:10:19.831Z,83.57
2022-10-23T02:11:23.216Z,83.58
2022-10-23T02:12:29.068Z,83.62
2022-10-23T02:13:48.646Z,83.54
2022-10-23T02:15:00.371Z,83.56
2022-10-23T02:16:12.773Z,83.53
2022-10-23T02:17:29.469Z,83.60
2022-10-23T02:18:32.593Z,83.69
2022-10-23T02:19:35.478Z,83.70
2022-10-23T02:20:48.369Z,83.70
2022-10-23T02:22:14.445Z,83.63
2022-10-23T02:23:21.486Z,83.55
2022-10-23T02:24:36.254Z,83.39
2022-10-23T02:25:46.333Z,83.13
2022-10-23T02:26:54.771Z,83.15
2022-10-23T02:28:01.946Z,83.18
2022-10-23T02:29:14.715Z,83.29
2022-10-23T02:30:19.762Z,83.36
2022-10-23T02:31:40.244Z,83.42
2022-10-23T02:32:46.519Z,83.40
2022-10-23T02:33:50.211Z,83.37
2022-10-23T02:34:53.181Z,83.31
2022-10-23T02:35:56.110Z,83.31
2022-10-23T02:37:00.180Z,83.21
2022-10-23T02:38:03.160Z,83.13
2022-10-23T02:39:06.826Z,83.02
2022-10-23T02:40:10.094Z,82.88
2022-10-23T02:41:28.175Z,82.86
2022-10-23T02:42:37.054Z,82.98
2022-10-23T02:44:00.222Z,83.14
2022-10-23T02:45:03.062Z,83.28
2022-10-23T02:46:32.507Z,83.43
2022-10-23T02:47:40.790Z,83.62
2022-10-23T02:48:58.496Z,83.78
2022-10-23T02:50:13.746Z,83.85
2022-10-23T02:51:22.717Z,83.86
2022-10-23T02:52:38.170Z,83.82
2022-10-23T02:53:49.286Z,83.82
2022-10-23T02:55:07.453Z,83.84
2022-10-23T02:56:26.440Z,83.90
2022-10-23T02:57:44.881Z,83.85
2022-10-23T02:59:08.925Z,83.83
2022-10-23T03:00:16.149Z,83.81
2022-10-23T03:01:21.731Z,83.77
2022-10-23T03:02:26.730Z,83.69
2022-10-23T03:03:32.119Z,83.61
2022-10-23T03:04:37.624Z,83.53
2022-10-23T03:05:41.671Z,83.49
2022-10-23T03:06:45.300Z,83.41
2022-10-23T03:07:52.165Z,83.29
2022-10-23T03:08:58.214Z,83.21
2022-10-23T03:10:01.623Z,83.13
2022-10-23T03:11:06.478Z,83.09
2022-10-23T03:12:09.304Z,83.07
2022-10-23T03:13:12.746Z,83.07
2022-10-23T03:14:19.659Z,83.07
2022-10-23T03:15:22.611Z,83.06
2022-10-23T03:16:26.440Z,83.01
2022-10-23T03:17:30.480Z,82.90
2022-10-23T03:18:35.330Z,82.84
2022-10-23T03:19:38.533Z,82.89
2022-10-23T03:20:41.426Z,82.89
2022-10-23T03:21:44.319Z,82.99
2022-10-23T03:22:47.148Z,83.14
2022-10-23T03:23:50.133Z,83.16
2022-10-23T03:24:55.468Z,83.06
2022-10-23T03:25:58.334Z,83.60
2022-10-23T03:27:11.563Z,83.74
2022-10-23T03:28:14.458Z,83.76
2022-10-23T03:29:17.406Z,83.81
2022-10-23T03:30:21.561Z,83.83
2022-10-23T03:31:26.998Z,83.99
2022-10-23T03:32:32.690Z,83.90
2022-10-23T03:33:36.038Z,83.64
2022-10-23T03:34:46.957Z,84.17
2022-10-23T03:35:50.044Z,84.44
2022-10-23T03:36:53.247Z,84.58
2022-10-23T03:37:56.522Z,84.60
2022-10-23T03:39:04.072Z,84.64
2022-10-23T03:40:07.704Z,84.68
2022-10-23T03:41:10.931Z,84.78
2022-10-23T03:42:13.833Z,84.81
2022-10-23T03:43:16.678Z,84.88
2022-10-23T03:44:19.519Z,84.86
2022-10-23T03:45:22.569Z,84.87
2022-10-23T03:46:25.504Z,84.87
2022-10-23T03:47:30.549Z,84.89
2022-10-23T03:48:33.572Z,84.86
2022-10-23T03:49:36.692Z,84.84
2022-10-23T03:50:41.835Z,84.82
2022-10-23T03:51:52.005Z,84.78
2022-10-23T03:52:56.993Z,84.79
2022-10-23T03:53:59.932Z,84.87
2022-10-23T03:55:04.124Z,84.95
2022-10-23T03:56:07.196Z,84.93
2022-10-23T03:57:10.118Z,84.95
2022-10-23T03:58:13.021Z,84.97
2022-10-23T03:59:16.073Z,84.98
2022-10-23T04:00:18.937Z,85.01
2022-10-23T04:01:23.729Z,85.03
2022-10-23T04:02:27.075Z,85.02
2022-10-23T04:03:30.090Z,84.34
2022-10-23T04:04:33.209Z,82.57
2022-10-23T04:05:36.164Z,84.03
2022-10-23T04:06:40.287Z,84.57
2022-10-23T04:07:43.341Z,84.79
2022-10-23T04:08:46.661Z,84.92
2022-10-23T04:09:52.060Z,84.97
2022-10-23T04:10:55.161Z,84.98
2022-10-23T04:12:09.609Z,85.09
2022-10-23T04:13:12.434Z,84.95
2022-10-23T04:14:15.347Z,84.84
2022-10-23T04:15:18.303Z,84.92
2022-10-23T04:16:22.616Z,84.96
2022-10-23T04:17:25.539Z,84.96
2022-10-23T04:18:28.598Z,84.98
2022-10-23T04:19:31.556Z,85.03
2022-10-23T04:20:34.528Z,85.04
2022-10-23T04:21:38.483Z,85.03
2022-10-23T04:22:41.859Z,85.01
2022-10-23T04:23:46.369Z,84.98
2022-10-23T04:24:51.759Z,84.99
2022-10-23T04:25:58.067Z,84.96
2022-10-23T04:27:01.713Z,84.98
2022-10-23T04:28:06.053Z,85.00
2022-10-23T04:29:13.201Z,84.99
2022-10-23T04:30:16.280Z,84.96
2022-10-23T04:31:21.559Z,84.95
2022-10-23T04:32:24.342Z,84.98
2022-10-23T04:33:27.339Z,84.97
2022-10-23T04:34:30.335Z,84.80
2022-10-23T04:35:33.179Z,85.13
2022-10-23T04:36:36.134Z,85.24
2022-10-23T04:37:44.691Z,85.29
2022-10-23T04:38:48.323Z,85.25
2022-10-23T04:39:51.211Z,85.18
2022-10-23T04:40:54.218Z,84.20
2022-10-23T04:41:58.232Z,81.76
2022-10-23T04:43:01.571Z,80.83
2022-10-23T04:44:08.458Z,82.15
2022-10-23T04:45:14.320Z,83.63
2022-10-23T04:46:18.301Z,84.21
2022-10-23T04:47:23.818Z,84.50
2022-10-23T04:48:33.097Z,84.74
2022-10-23T04:49:54.843Z,84.88
2022-10-23T04:51:11.495Z,84.86
2022-10-23T04:52:27.725Z,84.86
2022-10-23T04:53:41.471Z,84.86
2022-10-23T04:54:57.681Z,85.02
2022-10-23T04:56:12.709Z,85.05
2022-10-23T04:57:27.290Z,85.02
2022-10-23T04:58:35.027Z,85.06
2022-10-23T04:59:37.915Z,85.12
2022-10-23T05:00:41.253Z,85.19
2022-10-23T05:01:44.991Z,85.04
2022-10-23T05:02:49.888Z,85.00
2022-10-23T05:03:54.137Z,85.06
2022-10-23T05:04:57.094Z,85.08
2022-10-23T05:06:11.869Z,85.10
2022-10-23T05:07:22.962Z,85.12
2022-10-23T05:08:38.011Z,85.22
2022-10-23T05:09:58.567Z,85.16
2022-10-23T05:11:27.605Z,85.09
2022-10-23T05:12:30.739Z,85.10
2022-10-23T05:13:34.362Z,85.03
2022-10-23T05:14:37.178Z,84.94
2022-10-23T05:17:09.099Z,84.88
2022-10-23T05:18:15.482Z,84.82
2022-10-23T05:19:24.289Z,84.76
2022-10-23T05:20:30.504Z,84.73
2022-10-23T05:21:35.434Z,84.69
2022-10-23T05:22:43.188Z,84.69
2022-10-23T05:23:47.762Z,84.67
2022-10-23T05:24:53.473Z,84.70
2022-10-23T05:26:00.582Z,84.73
2022-10-23T05:27:03.448Z,84.57
2022-10-23T05:28:07.663Z,84.50
2022-10-23T05:29:10.681Z,84.42
2022-10-23T05:30:14.315Z,84.25
2022-10-23T05:31:18.349Z,83.98
2022-10-23T05:32:27.721Z,83.95
2022-10-23T05:33:31.363Z,84.02
2022-10-23T05:34:35.751Z,84.15
2022-10-23T05:35:39.632Z,84.15
2022-10-23T05:36:42.866Z,84.19
2022-10-23T05:37:47.240Z,84.18
2022-10-23T05:38:55.400Z,84.13
2022-10-23T05:39:58.471Z,84.04
2022-10-23T05:41:02.390Z,84.03
2022-10-23T05:42:05.267Z,84.03
2022-10-23T05:43:08.345Z,84.14
2022-10-23T05:44:22.524Z,84.31
2022-10-23T05:45:25.630Z,84.44
2022-10-23T05:46:47.353Z,84.59
2022-10-23T05:48:05.767Z,84.67
2022-10-23T05:49:43.045Z,84.77
2022-10-23T05:51:02.551Z,84.77
2022-10-23T05:52:16.889Z,84.85
2022-10-23T05:53:42.686Z,84.93
2022-10-23T05:54:58.081Z,84.95
2022-10-23T05:56:37.388Z,84.97
2022-10-23T05:57:57.920Z,84.72
2022-10-23T05:59:22.132Z,84.18
2022-10-23T06:00:49.110Z,83.93
2022-10-23T06:02:11.983Z,83.99
2022-10-23T06:03:44.103Z,84.08
2022-10-23T06:04:47.116Z,83.96
2022-10-23T06:05:56.045Z,84.13
2022-10-23T06:07:04.431Z,84.28
2022-10-23T06:08:07.629Z,84.42
2022-10-23T06:09:10.517Z,84.54
2022-10-23T06:10:16.301Z,84.66
2022-10-23T06:11:21.645Z,84.77
2022-10-23T06:12:34.241Z,84.88
2022-10-23T06:13:37.513Z,85.00
2022-10-23T06:14:40.695Z,85.06
2022-10-23T06:15:43.698Z,85.08
2022-10-23T06:16:52.644Z,85.12
2022-10-23T06:18:00.019Z,85.09
2022-10-23T06:19:03.616Z,85.00
2022-10-23T06:20:06.921Z,85.02
2022-10-23T06:21:12.351Z,85.14
2022-10-23T06:22:15.706Z,85.13
2022-10-23T06:23:25.412Z,85.14
2022-10-23T06:24:50.823Z,85.16
2022-10-23T06:26:00.561Z,85.18
2022-10-23T06:27:10.035Z,85.12
2022-10-23T06:28:20.903Z,85.10
2022-10-23T06:29:24.705Z,85.08
2022-10-23T06:30:27.679Z,85.06
2022-10-23T06:31:30.818Z,85.02
2022-10-23T06:32:33.786Z,84.99
2022-10-23T06:33:46.280Z,84.96
2022-10-23T06:34:49.116Z,85.11
2022-10-23T06:35:51.931Z,85.20
2022-10-23T06:36:54.746Z,85.12
2022-10-23T06:38:10.790Z,84.42
2022-10-23T06:39:17.506Z,84.17
2022-10-23T06:40:38.854Z,84.17
2022-10-23T06:41:44.462Z,84.29
2022-10-23T06:42:52.699Z,84.35
2022-10-23T06:44:27.801Z,84.49
2022-10-23T06:45:35.214Z,84.60
2022-10-23T06:46:51.491Z,84.27
2022-10-23T06:48:12.985Z,84.55
2022-10-23T06:49:40.752Z,84.96
2022-10-23T06:50:43.593Z,85.07
2022-10-23T06:51:50.779Z,85.17
2022-10-23T06:52:57.237Z,85.27
2022-10-23T06:54:00.438Z,85.31
2022-10-23T06:55:23.100Z,85.32
2022-10-23T06:56:29.371Z,85.31
2022-10-23T06:57:33.620Z,85.36
2022-10-23T06:58:37.526Z,85.41
2022-10-23T06:59:47.475Z,85.42
2022-10-23T07:00:52.016Z,85.42
2022-10-23T07:03:03.724Z,85.45
2022-10-23T07:04:06.567Z,85.42
2022-10-23T07:05:12.773Z,85.29
2022-10-23T07:06:17.718Z,84.94
2022-10-23T07:07:20.700Z,84.92
2022-10-23T07:08:24.985Z,84.68
2022-10-23T07:09:28.722Z,84.35
2022-10-23T07:10:31.525Z,84.23
2022-10-23T07:11:36.998Z,84.26
2022-10-23T07:12:40.006Z,84.38
2022-10-23T07:14:15.157Z,84.52
2022-10-23T07:15:18.442Z,84.62
2022-10-23T07:16:22.216Z,84.47
2022-10-23T07:17:26.411Z,84.34
2022-10-23T07:18:29.357Z,84.25
2022-10-23T07:19:52.109Z,83.49
2022-10-23T07:20:58.982Z,84.05
2022-10-23T07:22:01.954Z,84.33
2022-10-23T07:23:17.424Z,84.64
2022-10-23T07:24:21.052Z,84.80
2022-10-23T07:25:25.368Z,84.99
2022-10-23T07:26:29.436Z,84.99
2022-10-23T07:27:35.903Z,85.08
2022-10-23T07:28:39.004Z,85.21
2022-10-23T07:29:42.205Z,85.28
2022-10-23T07:30:45.392Z,85.15
2022-10-23T07:31:48.778Z,85.09
2022-10-23T07:33:01.376Z,85.42
2022-10-23T07:34:14.354Z,85.62
2022-10-23T07:35:18.193Z,85.66
2022-10-23T07:36:30.850Z,85.73
2022-10-23T07:37:33.970Z,85.80
2022-10-23T07:38:38.842Z,85.89
2022-10-23T07:39:42.615Z,86.13
2022-10-23T07:40:46.022Z,86.19
2022-10-23T07:41:51.192Z,86.19
2022-10-23T07:42:54.407Z,86.16
2022-10-23T07:43:57.440Z,86.14
2022-10-23T07:45:01.119Z,86.10
2022-10-23T07:46:04.961Z,86.28
2022-10-23T07:47:11.565Z,86.34
2022-10-23T07:48:16.895Z,86.40
2022-10-23T07:49:34.994Z,86.55
2022-10-23T07:50:38.713Z,86.58
2022-10-23T07:51:42.004Z,86.58
2022-10-23T07:52:45.652Z,86.49
2022-10-23T07:53:52.330Z,86.35
2022-10-23T07:55:09.351Z,85.43
2022-10-23T07:56:20.572Z,85.44
2022-10-23T07:57:49.497Z,85.75
2022-10-23T07:59:15.591Z,85.48
2022-10-23T08:01:38.181Z,84.12
2022-10-23T08:02:41.970Z,84.49
2022-10-23T08:03:46.023Z,84.55
2022-10-23T08:04:50.230Z,84.65
2022-10-23T08:06:00.222Z,84.34
2022-10-23T08:07:04.658Z,84.31
2022-10-23T08:08:12.972Z,84.54
2022-10-23T08:09:16.449Z,84.78
2022-10-23T08:10:20.215Z,84.58
2022-10-23T08:11:28.984Z,84.68
2022-10-23T08:12:32.211Z,84.84
2022-10-23T08:13:35.499Z,84.92
2022-10-23T08:14:40.712Z,84.99
2022-10-23T08:15:46.756Z,85.01
2022-10-23T08:17:09.991Z,85.21
2022-10-23T08:18:49.653Z,85.29
2022-10-23T08:19:53.156Z,85.17
2022-10-23T08:21:00.719Z,85.19
2022-10-23T08:22:04.081Z,85.23
2022-10-23T08:23:07.327Z,85.27
2022-10-23T08:24:13.888Z,85.24
2022-10-23T08:25:21.861Z,85.22
2022-10-23T08:26:31.860Z,85.32
2022-10-23T08:27:34.846Z,85.33
2022-10-23T08:28:38.239Z,85.41
2022-10-23T08:29:41.435Z,85.41
2022-10-23T08:30:44.855Z,85.44
2022-10-23T08:31:48.555Z,84.42
2022-10-23T08:33:10.565Z,84.63
2022-10-23T08:34:24.831Z,84.56
2022-10-23T08:35:38.876Z,84.84
2022-10-23T08:36:46.919Z,84.14
2022-10-23T08:37:51.486Z,82.65
2022-10-23T08:39:06.579Z,83.89
2022-10-23T08:40:23.682Z,83.82
2022-10-23T08:41:55.651Z,82.62
2022-10-23T08:43:12.693Z,83.14
2022-10-23T08:44:26.358Z,82.87
2022-10-23T08:45:29.548Z,82.64
2022-10-23T08:46:42.142Z,82.56
2022-10-23T08:48:25.347Z,82.49
2022-10-23T08:49:59.876Z,81.27
2022-10-23T08:51:07.831Z,80.52
2022-10-23T08:52:21.706Z,81.05
2022-10-23T08:53:31.409Z,80.86
2022-10-23T08:54:43.425Z,80.98
2022-10-23T08:55:49.791Z,80.78
2022-10-23T08:56:57.372Z,80.84
2022-10-23T08:58:18.454Z,80.88
2022-10-23T08:59:32.984Z,80.75
2022-10-23T09:00:35.956Z,81.04
2022-10-23T09:01:43.154Z,80.63
2022-10-23T09:02:48.655Z,79.90
2022-10-23T09:03:51.744Z,80.07
2022-10-23T09:04:55.901Z,79.81
2022-10-23T09:06:01.875Z,80.00
2022-10-23T09:07:16.997Z,80.39
2022-10-23T09:08:19.897Z,80.19
2022-10-23T09:09:28.664Z,80.55
2022-10-23T09:10:55.027Z,80.46
2022-10-23T09:12:09.493Z,80.32
2022-10-23T09:13:21.067Z,79.97
2022-10-23T09:14:29.954Z,79.77
2022-10-23T09:15:42.371Z,78.80
2022-10-23T09:17:00.270Z,78.40
2022-10-23T09:18:11.394Z,78.30
2022-10-23T09:19:19.781Z,78.42
2022-10-23T09:20:28.275Z,78.55
2022-10-23T09:21:32.615Z,78.16
2022-10-23T09:22:35.551Z,78.13
2022-10-23T09:23:38.433Z,78.43
2022-10-23T09:24:42.951Z,78.59
2022-10-23T09:25:46.587Z,78.67
2022-10-23T09:26:51.278Z,78.66
2022-10-23T09:27:57.336Z,78.50
2022-10-23T09:29:15.608Z,78.26
2022-10-23T09:30:25.748Z,77.76
2022-10-23T09:31:28.648Z,78.20
2022-10-23T09:32:38.008Z,77.74
2022-10-23T09:33:41.319Z,76.47
2022-10-23T09:34:52.432Z,76.37
2022-10-23T09:35:55.419Z,76.99
2022-10-23T09:36:59.791Z,76.76
2022-10-23T09:38:03.019Z,76.88
2022-10-23T09:39:21.131Z,76.37
2022-10-23T09:40:26.865Z,76.69
2022-10-23T09:41:31.006Z,76.63
2022-10-23T09:42:34.030Z,76.44
2022-10-23T09:43:37.187Z,76.11
2022-10-23T09:44:48.528Z,76.41
2022-10-23T09:46:20.667Z,76.50
2022-10-23T09:47:24.972Z,75.57
2022-10-23T09:48:27.893Z,76.07
2022-10-23T09:49:31.939Z,74.99
2022-10-23T09:50:34.917Z,75.54
2022-10-23T09:51:41.908Z,75.21
2022-10-23T09:52:44.864Z,75.00
2022-10-23T09:53:51.105Z,75.09
2022-10-23T09:54:55.860Z,74.65
2022-10-23T09:56:22.341Z,74.27
2022-10-23T09:57:30.158Z,75.00
2022-10-23T09:58:38.262Z,75.53
2022-10-23T09:59:42.004Z,75.94
2022-10-23T10:00:51.070Z,75.76
2022-10-23T10:01:58.189Z,75.61
2022-10-23T10:03:24.609Z,75.83
2022-10-23T10:04:42.087Z,74.61
2022-10-23T10:05:53.101Z,74.49
2022-10-23T10:06:59.640Z,74.71
2022-10-23T10:08:20.657Z,75.10
2022-10-23T10:09:23.780Z,73.97
2022-10-23T10:10:28.957Z,74.17
2022-10-23T10:11:44.125Z,73.96
2022-10-23T10:12:51.296Z,73.87
2022-10-23T10:13:54.213Z,74.46
2022-10-23T10:14:57.130Z,74.38
2022-10-23T10:16:20.258Z,74.13
2022-10-23T10:17:58.695Z,74.70
2022-10-23T10:19:20.504Z,74.03
2022-10-23T10:20:29.034Z,72.57
2022-10-23T10:21:54.619Z,72.95
2022-10-23T10:23:00.276Z,72.82
2022-10-23T10:24:07.301Z,71.48
2022-10-23T10:25:10.316Z,71.85
2022-10-23T10:26:35.112Z,71.87
2022-10-23T10:27:38.490Z,71.98
2022-10-23T10:29:06.019Z,72.14
2022-10-23T10:30:34.163Z,70.23
2022-10-23T10:31:48.159Z,71.56
2022-10-23T10:32:55.135Z,72.93
2022-10-23T10:34:07.127Z,73.03
2022-10-23T10:35:19.542Z,73.23
2022-10-23T10:36:40.806Z,73.52
2022-10-23T10:37:45.966Z,73.56
2022-10-23T10:38:54.770Z,72.97
2022-10-23T10:40:03.464Z,72.87
2022-10-23T10:41:06.453Z,72.37
2022-10-23T10:42:18.764Z,72.89
2022-10-23T10:43:40.578Z,72.49
2022-10-23T10:44:46.590Z,73.60
2022-10-23T10:45:53.775Z,73.51
2022-10-23T10:46:59.909Z,72.91
2022-10-23T10:48:07.362Z,72.85
2022-10-23T10:49:37.255Z,72.49
2022-10-23T10:51:04.273Z,73.40
2022-10-23T10:52:29.079Z,72.70
2022-10-23T10:53:45.199Z,72.64
2022-10-23T10:54:56.086Z,73.06
2022-10-23T10:56:02.124Z,72.97
2022-10-23T10:57:09.515Z,73.37
2022-10-23T10:58:51.179Z,74.21
2022-10-23T10:59:55.932Z,73.56
2022-10-23T11:01:01.671Z,73.25
2022-10-23T11:02:23.308Z,73.08
2022-10-23T11:03:44.657Z,73.28
2022-10-23T11:04:53.215Z,73.43
2022-10-23T11:07:08.219Z,73.87
2022-10-23T11:08:11.228Z,73.21
2022-10-23T11:09:34.476Z,72.48
2022-10-23T11:10:39.438Z,72.68
2022-10-23T11:11:42.403Z,72.69
2022-10-23T11:12:46.511Z,72.79
2022-10-23T11:13:51.616Z,73.84
2022-10-23T11:14:56.032Z,74.38
2022-10-23T11:16:11.380Z,73.66
2022-10-23T11:17:36.720Z,73.54
2022-10-23T11:18:42.129Z,73.87
2022-10-23T11:19:57.840Z,73.29
2022-10-23T11:21:19.021Z,72.51
2022-10-23T11:22:26.364Z,72.98
2022-10-23T11:23:35.011Z,73.04
2022-10-23T11:24:43.149Z,72.94
2022-10-23T11:26:13.342Z,73.64
2022-10-23T11:27:23.629Z,73.87
2022-10-23T11:28:38.921Z,73.80
2022-10-23T11:29:48.250Z,73.42
2022-10-23T11:30:57.659Z,73.74
2022-10-23T11:32:15.728Z,73.33
2022-10-23T11:33:39.280Z,72.69
2022-10-23T11:34:44.312Z,73.20
2022-10-23T11:36:00.685Z,73.54
2022-10-23T11:37:05.074Z,73.82
2022-10-23T11:38:28.673Z,73.87
2022-10-23T11:39:33.567Z,73.83
2022-10-23T11:41:58.571Z,73.95
2022-10-23T11:43:01.545Z,73.63
2022-10-23T11:44:24.399Z,73.49
2022-10-23T11:45:27.564Z,73.10
2022-10-23T11:46:32.597Z,72.88
2022-10-23T11:47:40.088Z,73.26
2022-10-23T11:48:44.609Z,73.52
2022-10-23T11:49:47.686Z,73.47
2022-10-23T11:50:53.615Z,74.04
2022-10-23T11:52:00.414Z,73.78
2022-10-23T11:53:14.641Z,73.46
2022-10-23T11:54:26.105Z,73.76
2022-10-23T11:55:30.917Z,73.24
2022-10-23T11:56:34.296Z,73.07
2022-10-23T11:57:37.226Z,72.08
2022-10-23T11:58:40.118Z,72.90
2022-10-23T11:59:45.753Z,72.79
2022-10-23T12:01:06.568Z,73.21
2022-10-23T12:02:21.813Z,72.83
2022-10-23T12:03:28.839Z,72.84
2022-10-23T12:04:46.459Z,72.69
2022-10-23T12:05:56.611Z,71.93
2022-10-23T12:07:04.932Z,70.77
2022-10-23T12:08:19.732Z,71.17
2022-10-23T12:09:25.450Z,70.26
2022-10-23T12:10:45.972Z,69.05
2022-10-23T12:11:51.417Z,66.00
2022-10-23T12:12:56.671Z,64.69
2022-10-23T12:14:00.431Z,64.70
2022-10-23T12:15:14.664Z,66.57
2022-10-23T12:16:17.754Z,65.37
2022-10-23T12:17:23.800Z,68.34
2022-10-23T12:18:27.882Z,67.69
2022-10-23T12:19:43.264Z,66.85
2022-10-23T12:20:49.407Z,68.33
2022-10-23T12:21:57.690Z,68.40
2022-10-23T12:23:06.223Z,68.47
2022-10-23T12:24:39.416Z,66.92
2022-10-23T12:25:45.396Z,66.56
2022-10-23T12:27:01.917Z,63.94
2022-10-23T12:28:14.963Z,62.35
2022-10-23T12:29:40.893Z,60.05
2022-10-23T12:30:56.683Z,61.45
2022-10-23T12:32:08.814Z,61.74
2022-10-23T12:33:16.629Z,59.04
2022-10-23T12:34:38.359Z,57.84
2022-10-23T12:35:53.761Z,56.02
2022-10-23T12:36:56.922Z,60.70
2022-10-23T12:38:12.371Z,59.07
2022-10-23T12:39:41.876Z,59.60
2022-10-23T12:40:55.634Z,56.13
2022-10-23T12:42:00.010Z,59.49
2022-10-23T12:43:21.629Z,62.29
2022-10-23T12:44:27.983Z,62.21
2022-10-23T12:45:36.999Z,63.41
2022-10-23T12:46:41.127Z,61.65
2022-10-23T12:47:45.919Z,61.77
2022-10-23T12:48:50.018Z,63.02
2022-10-23T12:49:53.085Z,62.26
2022-10-23T12:50:56.588Z,63.96
2022-10-23T12:52:02.166Z,65.24
2022-10-23T12:53:07.829Z,63.24
2022-10-23T12:54:16.285Z,60.42
2022-10-23T12:55:20.270Z,62.27
2022-10-23T12:56:33.010Z,61.68
2022-10-23T12:57:42.002Z,63.69
2022-10-23T12:58:56.812Z,63.67
2022-10-23T13:00:10.416Z,64.10
2022-10-23T13:01:21.771Z,64.05
2022-10-23T13:02:27.078Z,62.70
2022-10-23T13:03:31.197Z,61.23
2022-10-23T13:04:35.494Z,58.15
2022-10-23T13:05:38.753Z,59.71
2022-10-23T13:06:42.159Z,62.24
2022-10-23T13:07:47.227Z,62.39
2022-10-23T13:08:52.440Z,60.95
2022-10-23T13:10:06.026Z,58.30
2022-10-23T13:11:15.558Z,58.13
2022-10-23T13:12:22.463Z,56.57
2022-10-23T13:13:25.657Z,56.99
2022-10-23T13:14:43.596Z,57.81
2022-10-23T13:15:47.881Z,57.03
2022-10-23T13:16:58.594Z,57.70
2022-10-23T13:18:03.134Z,59.40
2022-10-23T13:19:06.131Z,58.10
2022-10-23T13:20:18.284Z,59.43
2022-10-23T13:21:23.227Z,61.36
2022-10-23T13:22:26.243Z,61.50
2022-10-23T13:23:33.589Z,61.65
2022-10-23T13:24:36.520Z,61.69
2022-10-23T13:25:40.184Z,61.69
2022-10-23T13:26:45.406Z,61.26
2022-10-23T13:27:49.200Z,61.66
2022-10-23T13:28:52.291Z,60.80
2022-10-23T13:29:55.365Z,60.32
2022-10-23T13:31:18.165Z,61.01
2022-10-23T13:32:28.760Z,61.21
2022-10-23T13:33:33.377Z,61.29
2022-10-23T13:34:36.397Z,60.65
2022-10-23T13:35:39.325Z,60.95
2022-10-23T13:36:53.236Z,60.58
2022-10-23T13:38:07.164Z,60.27
2022-10-23T13:39:10.209Z,59.60
2022-10-23T13:40:23.420Z,58.16
2022-10-23T13:41:27.773Z,58.34
2022-10-23T13:42:31.025Z,58.83
2022-10-23T13:43:35.469Z,59.55
2022-10-23T13:44:39.213Z,59.15
2022-10-23T13:45:42.299Z,57.51
2022-10-23T13:46:45.716Z,57.66
2022-10-23T13:47:48.780Z,55.80
2022-10-23T13:48:51.891Z,57.45
2022-10-23T13:49:54.809Z,59.34
2022-10-23T13:51:01.638Z,59.95
2022-10-23T13:52:04.664Z,59.92
2022-10-23T13:53:11.616Z,59.78
2022-10-23T13:54:16.197Z,60.93
2022-10-23T13:55:25.565Z,62.31
2022-10-23T13:56:28.795Z,63.47
2022-10-23T13:57:31.995Z,63.06
2022-10-23T13:58:35.004Z,63.11
2022-10-23T13:59:37.932Z,62.85
2022-10-23T14:00:43.356Z,62.39
2022-10-23T14:01:47.286Z,62.26
2022-10-23T14:02:50.356Z,61.08
2022-10-23T14:03:53.755Z,59.20
2022-10-23T14:04:56.725Z,60.50
2022-10-23T14:06:00.516Z,60.52
2022-10-23T14:07:03.622Z,59.70
2022-10-23T14:08:06.642Z,58.61
2022-10-23T14:09:14.215Z,60.35
2022-10-23T14:10:17.553Z,60.92
2022-10-23T14:11:20.481Z,60.44
2022-10-23T14:12:23.401Z,60.31
2022-10-23T14:13:26.392Z,61.40
2022-10-23T14:14:29.686Z,62.29
2022-10-23T14:15:32.825Z,63.18
2022-10-23T14:16:35.924Z,62.68
2022-10-23T14:17:39.351Z,61.99
2022-10-23T14:18:42.691Z,62.63
2022-10-23T14:19:45.840Z,62.40
2022-10-23T14:20:48.898Z,62.18
2022-10-23T14:21:51.973Z,62.26
2022-10-23T14:22:55.088Z,62.30
2022-10-23T14:23:57.987Z,60.95
2022-10-23T14:25:01.012Z,59.41
2022-10-23T14:26:05.507Z,59.52
2022-10-23T14:27:08.535Z,60.33
2022-10-23T14:28:11.453Z,60.22
2022-10-23T14:29:21.405Z,58.73
2022-10-23T14:30:26.570Z,58.84
2022-10-23T14:31:29.968Z,57.97
2022-10-23T14:32:33.037Z,58.50
2022-10-23T14:33:36.213Z,60.29
2022-10-23T14:34:42.424Z,59.40
2022-10-23T14:35:45.946Z,58.82
2022-10-23T14:36:56.701Z,58.93
2022-10-23T14:38:06.866Z,60.12
2022-10-23T14:39:09.839Z,59.42
2022-10-23T14:40:13.129Z,59.49
2022-10-23T14:41:17.541Z,61.34
2022-10-23T14:42:20.570Z,62.59
2022-10-23T14:43:23.882Z,62.86
2022-10-23T14:44:27.284Z,63.04
2022-10-23T14:45:30.331Z,63.67
2022-10-23T14:46:35.492Z,64.39
2022-10-23T14:47:38.578Z,64.85